createdAt,value
2024-01-29T00:00:48.718Z,7.40
2024-01-29T00:03:15.913Z,7.50
2024-01-29T00:05:42.879Z,7.13
2024-01-29T00:08:09.745Z,9.38
2024-01-29T00:10:36.721Z,8.98
2024-01-29T00:13:04.063Z,7.40
2024-01-29T00:15:30.870Z,8.50
2024-01-29T00:17:57.772Z,7.72
2024-01-29T00:20:24.676Z,6.82
2024-01-29T00:22:51.934Z,7.78
2024-01-29T00:25:18.938Z,6.85
2024-01-29T00:27:45.994Z,8.10
2024-01-29T00:30:13.122Z,7.57
2024-01-29T00:32:42.107Z,7.15
2024-01-29T00:35:09.357Z,7.60
2024-01-29T00:37:36.208Z,7.78
2024-01-29T00:40:04.159Z,7.65
2024-01-29T00:42:31.187Z,7.97
2024-01-29T00:44:58.282Z,7.00
2024-01-29T00:47:25.233Z,7.20
2024-01-29T00:49:52.216Z,7.88
2024-01-29T00:52:19.440Z,8.77
2024-01-29T00:54:46.675Z,8.85
2024-01-29T00:57:17.028Z,10.15
2024-01-29T00:59:44.370Z,8.88
2024-01-29T01:02:11.232Z,8.82
2024-01-29T01:04:38.983Z,8.35
2024-01-29T01:07:06.167Z,8.35
2024-01-29T01:09:33.035Z,7.70
2024-01-29T01:11:59.952Z,7.25
2024-01-29T01:14:26.797Z,7.35
2024-01-29T01:16:53.705Z,7.68
2024-01-29T01:19:20.715Z,8.32
2024-01-29T01:21:48.916Z,7.85
2024-01-29T01:24:15.843Z,8.95
2024-01-29T01:26:42.847Z,9.00
2024-01-29T01:29:09.704Z,9.48
2024-01-29T01:31:36.540Z,8.57
2024-01-29T01:34:03.393Z,7.97
2024-01-29T01:36:30.369Z,8.70
2024-01-29T01:38:57.335Z,8.65
2024-01-29T01:41:24.259Z,7.60
2024-01-29T01:43:51.093Z,8.23
2024-01-29T01:46:22.521Z,7.90
2024-01-29T01:48:54.210Z,8.63
2024-01-29T01:51:22.328Z,7.93
2024-01-29T01:53:53.918Z,7.50
2024-01-29T01:56:21.487Z,7.63
2024-01-29T01:58:48.594Z,7.82
2024-01-29T02:01:16.113Z,6.30
2024-01-29T02:03:44.463Z,7.38
2024-01-29T02:06:12.931Z,7.18
2024-01-29T02:08:40.451Z,7.13
2024-01-29T02:11:07.295Z,6.90
2024-01-29T02:13:34.933Z,6.90
2024-01-29T02:16:04.560Z,7.22
2024-01-29T02:18:31.916Z,6.13
2024-01-29T02:20:59.156Z,7.07
2024-01-29T02:23:26.281Z,7.72
2024-01-29T02:25:53.156Z,7.28
2024-01-29T02:28:20.094Z,6.57
2024-01-29T02:30:46.919Z,6.93
2024-01-29T02:33:14.010Z,7.20
2024-01-29T02:35:41.008Z,7.40
2024-01-29T02:38:07.921Z,7.15
2024-01-29T02:40:34.792Z,8.02
2024-01-29T02:43:01.974Z,6.82
2024-01-29T02:45:28.969Z,6.57
2024-01-29T02:47:55.898Z,7.07
2024-01-29T02:50:24.077Z,6.43
2024-01-29T02:52:50.932Z,6.65
2024-01-29T02:55:17.767Z,6.38
2024-01-29T02:57:44.832Z,5.93
2024-01-29T03:00:12.050Z,5.65
2024-01-29T03:02:38.922Z,6.72
2024-01-29T03:05:06.140Z,5.75
2024-01-29T03:07:33.434Z,5.90
2024-01-29T03:10:00.562Z,5.85
2024-01-29T03:12:27.742Z,6.15
2024-01-29T03:14:55.571Z,6.43
2024-01-29T03:17:22.533Z,6.28
2024-01-29T03:19:49.397Z,6.32
2024-01-29T03:22:16.440Z,6.43
2024-01-29T03:24:43.299Z,6.38
2024-01-29T03:27:10.123Z,6.47
2024-01-29T03:29:37.050Z,5.63
2024-01-29T03:32:04.295Z,5.65
2024-01-29T03:34:31.272Z,6.05
2024-01-29T03:36:58.280Z,6.05
2024-01-29T03:39:25.692Z,6.00
2024-01-29T03:41:52.957Z,5.93
2024-01-29T03:44:19.836Z,5.85
2024-01-29T03:46:48.336Z,6.45
2024-01-29T03:49:15.206Z,5.85
2024-01-29T03:51:42.167Z,6.63
2024-01-29T03:54:09.062Z,5.97
2024-01-29T03:56:35.982Z,6.22
2024-01-29T03:59:03.954Z,6.00
2024-01-29T04:01:30.846Z,5.95
2024-01-29T04:03:58.014Z,5.55
2024-01-29T04:06:25.181Z,6.53
2024-01-29T04:08:52.084Z,6.43
2024-01-29T04:11:18.937Z,6.63
2024-01-29T04:13:45.846Z,5.97
2024-01-29T04:16:12.959Z,5.63
2024-01-29T04:18:40.782Z,6.00
2024-01-29T04:21:08.274Z,6.20
2024-01-29T04:23:36.090Z,6.40
2024-01-29T04:26:03.728Z,5.97
2024-01-29T04:28:30.558Z,6.18
2024-01-29T04:30:58.336Z,5.95
2024-01-29T04:33:25.875Z,5.93
2024-01-29T04:35:52.830Z,6.38
2024-01-29T04:38:19.753Z,6.07
2024-01-29T04:40:46.587Z,6.35
2024-01-29T04:43:13.585Z,5.53
2024-01-29T04:45:40.523Z,5.28
2024-01-29T04:48:07.813Z,5.25
2024-01-29T04:50:34.670Z,5.28
2024-01-29T04:53:01.573Z,6.07
2024-01-29T04:55:28.396Z,5.72
2024-01-29T04:57:55.354Z,4.93
2024-01-29T05:00:22.398Z,5.25
2024-01-29T05:02:49.283Z,4.80
2024-01-29T05:05:16.895Z,5.32
2024-01-29T05:07:43.843Z,5.43
2024-01-29T05:10:11.373Z,5.30
2024-01-29T05:12:38.354Z,4.80
2024-01-29T05:15:06.076Z,5.30
2024-01-29T05:17:32.881Z,5.35
2024-01-29T05:19:59.777Z,5.57
2024-01-29T05:22:26.741Z,6.13
2024-01-29T05:24:53.736Z,5.43
2024-01-29T05:27:20.543Z,5.97
2024-01-29T05:29:47.515Z,5.50
2024-01-29T05:32:14.352Z,6.63
2024-01-29T05:34:41.313Z,5.88
2024-01-29T05:37:08.281Z,6.47
2024-01-29T05:39:35.157Z,5.22
2024-01-29T05:42:02.022Z,6.15
2024-01-29T05:44:28.944Z,5.68
2024-01-29T05:46:55.846Z,5.95
2024-01-29T05:49:23.978Z,5.95
2024-01-29T05:51:51.209Z,5.90
2024-01-29T05:54:18.095Z,6.55
2024-01-29T05:56:49.504Z,6.97
2024-01-29T05:59:17.965Z,5.68
2024-01-29T06:01:45.204Z,6.70
2024-01-29T06:04:12.326Z,5.93
2024-01-29T06:06:39.482Z,6.93
2024-01-29T06:09:10.916Z,6.30
2024-01-29T06:11:38.278Z,6.85
2024-01-29T06:14:05.629Z,6.18
2024-01-29T06:16:33.740Z,6.65
2024-01-29T06:19:01.200Z,6.15
2024-01-29T06:21:28.280Z,6.68
2024-01-29T06:23:55.626Z,7.45
2024-01-29T06:26:22.912Z,5.95
2024-01-29T06:28:49.764Z,6.60
2024-01-29T06:31:16.754Z,5.93
2024-01-29T06:33:43.845Z,6.25
2024-01-29T06:36:16.845Z,7.90
2024-01-29T06:38:43.687Z,6.50
2024-01-29T06:41:23.339Z,6.97
2024-01-29T06:43:54.697Z,7.07
2024-01-29T06:46:22.721Z,6.97
2024-01-29T06:48:49.899Z,6.82
2024-01-29T06:51:17.394Z,6.78
2024-01-29T06:53:45.387Z,7.20
2024-01-29T06:56:12.333Z,6.65
2024-01-29T06:58:39.212Z,7.05
2024-01-29T07:01:07.029Z,7.43
2024-01-29T07:03:34.678Z,7.43
2024-01-29T07:06:01.783Z,7.25
2024-01-29T07:08:28.810Z,7.22
2024-01-29T07:10:55.733Z,6.72
2024-01-29T07:13:22.775Z,7.13
2024-01-29T07:15:49.624Z,7.22
2024-01-29T07:18:16.833Z,6.00
2024-01-29T07:20:46.414Z,5.93
2024-01-29T07:23:13.490Z,6.07
2024-01-29T07:25:40.593Z,9.25
2024-01-29T07:28:08.029Z,7.78
2024-01-29T07:30:35.144Z,8.20
2024-01-29T07:33:03.521Z,8.02
2024-01-29T07:35:30.710Z,8.90
2024-01-29T07:37:57.821Z,8.00
2024-01-29T07:40:24.699Z,7.60
2024-01-29T07:42:52.132Z,7.53
2024-01-29T07:45:19.162Z,10.43
2024-01-29T07:47:46.591Z,8.35
2024-01-29T07:50:15.146Z,9.13
2024-01-29T07:52:42.099Z,8.15
2024-01-29T07:55:09.068Z,8.15
2024-01-29T07:57:36.222Z,7.80
2024-01-29T08:00:05.188Z,7.63
2024-01-29T08:02:32.142Z,7.07
2024-01-29T08:04:59.434Z,8.70
2024-01-29T08:07:27.903Z,8.43
2024-01-29T08:09:54.976Z,8.55
2024-01-29T08:12:22.012Z,7.60
2024-01-29T08:14:49.588Z,8.68
2024-01-29T08:17:16.429Z,8.10
2024-01-29T08:19:43.707Z,8.38
2024-01-29T08:22:10.682Z,9.02
2024-01-29T08:24:40.614Z,9.27
2024-01-29T08:27:07.484Z,8.20
2024-01-29T08:29:34.364Z,9.35
2024-01-29T08:32:01.294Z,9.38
2024-01-29T08:34:30.899Z,9.27
2024-01-29T08:36:59.233Z,8.90
2024-01-29T08:39:26.183Z,10.02
2024-01-29T08:41:53.502Z,11.00
2024-01-29T08:44:20.842Z,9.40
2024-01-29T08:46:47.663Z,9.80
2024-01-29T08:49:16.381Z,9.38
2024-01-29T08:51:43.510Z,9.80
2024-01-29T08:54:10.428Z,10.82
2024-01-29T08:56:39.984Z,10.85
2024-01-29T08:59:08.530Z,11.68
2024-01-29T09:01:35.839Z,10.13
2024-01-29T09:04:03.056Z,10.55
2024-01-29T09:06:30.223Z,10.73
2024-01-29T09:08:57.069Z,9.48
2024-01-29T09:11:24.152Z,10.30
2024-01-29T09:13:51.022Z,10.15
2024-01-29T09:16:18.369Z,9.85
2024-01-29T09:18:45.230Z,10.95
2024-01-29T09:21:12.138Z,10.15
2024-01-29T09:23:40.147Z,10.07
2024-01-29T09:26:08.158Z,10.75
2024-01-29T09:28:36.076Z,10.98
2024-01-29T09:31:03.172Z,9.88
2024-01-29T09:33:30.342Z,10.57
2024-01-29T09:35:57.585Z,10.25
2024-01-29T09:38:24.733Z,10.18
2024-01-29T09:40:52.122Z,9.95
2024-01-29T09:43:21.936Z,10.52
2024-01-29T09:45:52.907Z,11.30
2024-01-29T09:48:22.325Z,10.75
2024-01-29T09:50:52.481Z,12.00
2024-01-29T09:53:22.151Z,10.52
2024-01-29T09:55:49.325Z,10.68
2024-01-29T09:58:16.342Z,10.27
2024-01-29T10:00:43.482Z,11.80
2024-01-29T10:03:21.698Z,11.93
2024-01-29T10:05:50.026Z,11.35
2024-01-29T10:08:17.613Z,13.25
2024-01-29T10:10:44.630Z,13.48
2024-01-29T10:13:12.142Z,14.77
2024-01-29T10:15:39.187Z,14.55
2024-01-29T10:18:12.217Z,14.10
2024-01-29T10:20:39.536Z,14.23
2024-01-29T10:23:06.490Z,12.82
2024-01-29T10:25:35.626Z,13.60
2024-01-29T10:28:15.259Z,12.70
2024-01-29T10:30:42.569Z,14.27
2024-01-29T10:33:10.451Z,13.38
2024-01-29T10:35:38.397Z,12.90
2024-01-29T10:38:06.521Z,12.90
2024-01-29T10:40:37.765Z,13.68
2024-01-29T10:43:06.210Z,12.93
2024-01-29T10:45:40.396Z,12.63
2024-01-29T10:48:24.569Z,13.30
2024-01-29T10:50:52.654Z,12.63
2024-01-29T10:53:21.315Z,13.82
2024-01-29T10:55:52.174Z,13.32
2024-01-29T10:58:20.622Z,12.43
2024-01-29T11:00:48.163Z,15.25
2024-01-29T11:03:15.923Z,13.15
2024-01-29T11:05:50.998Z,12.48
2024-01-29T11:08:25.937Z,12.13
2024-01-29T11:10:53.166Z,15.52
2024-01-29T11:13:21.950Z,13.15
2024-01-29T11:15:49.576Z,23.77
2024-01-29T11:18:17.205Z,17.60
2024-01-29T11:20:45.395Z,15.70
2024-01-29T11:23:21.685Z,12.82
2024-01-29T11:25:53.251Z,13.20
2024-01-29T11:28:20.370Z,16.10
2024-01-29T11:30:58.256Z,16.52
2024-01-29T11:33:25.935Z,15.48
2024-01-29T11:35:57.847Z,14.77
2024-01-29T11:38:25.559Z,14.57
2024-01-29T11:40:52.744Z,12.32
2024-01-29T11:43:23.188Z,12.93
2024-01-29T11:45:55.244Z,12.10
2024-01-29T11:48:25.508Z,13.60
2024-01-29T11:50:54.074Z,13.73
2024-01-29T11:53:31.980Z,12.70
2024-01-29T11:55:58.798Z,12.82
2024-01-29T11:58:27.223Z,14.73
2024-01-29T12:00:54.594Z,11.85
2024-01-29T12:03:28.838Z,12.75
2024-01-29T12:05:55.944Z,12.13
2024-01-29T12:08:28.898Z,12.50
2024-01-29T12:11:04.340Z,12.23
2024-01-29T12:13:32.101Z,13.45
2024-01-29T12:16:01.956Z,13.15
2024-01-29T12:18:30.751Z,13.07
2024-01-29T12:20:58.430Z,13.80
2024-01-29T12:23:26.009Z,12.80
2024-01-29T12:25:57.876Z,13.30
2024-01-29T12:28:29.850Z,12.32
2024-01-29T12:31:06.639Z,14.45
2024-01-29T12:33:35.413Z,14.30
2024-01-29T12:36:17.589Z,13.95
2024-01-29T12:38:52.834Z,12.52
2024-01-29T12:41:20.603Z,12.35
2024-01-29T12:43:49.833Z,12.57
2024-01-29T12:46:16.818Z,13.07
2024-01-29T12:48:44.855Z,13.52
2024-01-29T12:51:13.342Z,13.13
2024-01-29T12:53:42.153Z,13.02
2024-01-29T12:56:09.528Z,12.80
2024-01-29T12:58:36.540Z,14.18
2024-01-29T13:01:03.505Z,14.13
2024-01-29T13:03:30.601Z,15.15
2024-01-29T13:05:58.842Z,14.25
2024-01-29T13:08:27.945Z,13.95
2024-01-29T13:10:55.584Z,13.55
2024-01-29T13:13:23.018Z,14.13
2024-01-29T13:15:54.088Z,12.57
2024-01-29T13:18:23.077Z,13.60
2024-01-29T13:20:50.193Z,14.55
2024-01-29T13:23:17.758Z,13.90
2024-01-29T13:25:45.740Z,14.02
2024-01-29T13:28:13.012Z,13.65
2024-01-29T13:30:40.286Z,13.38
2024-01-29T13:33:08.096Z,13.68
2024-01-29T13:35:35.134Z,14.07
2024-01-29T13:38:02.090Z,14.00
2024-01-29T13:40:29.084Z,14.93
2024-01-29T13:42:57.844Z,14.20
2024-01-29T13:45:25.006Z,14.45
2024-01-29T13:47:54.137Z,14.13
2024-01-29T13:50:21.466Z,14.60
2024-01-29T13:52:48.545Z,13.57
2024-01-29T13:55:15.743Z,14.38
2024-01-29T13:57:42.853Z,14.77
2024-01-29T14:00:14.885Z,14.90
2024-01-29T14:02:42.509Z,14.90
2024-01-29T14:05:10.457Z,13.60
2024-01-29T14:07:38.853Z,13.48
2024-01-29T14:10:06.351Z,12.57
2024-01-29T14:12:33.432Z,13.88
2024-01-29T14:15:03.577Z,14.48
2024-01-29T14:17:35.089Z,15.38
2024-01-29T14:20:02.586Z,14.43
2024-01-29T14:22:29.616Z,14.60
2024-01-29T14:24:58.044Z,14.77
2024-01-29T14:27:26.063Z,14.40
2024-01-29T14:29:53.486Z,15.02
2024-01-29T14:32:20.637Z,14.15
2024-01-29T14:34:47.562Z,14.43
2024-01-29T14:37:14.856Z,14.48
2024-01-29T14:39:41.816Z,15.23
2024-01-29T14:42:08.806Z,14.90
2024-01-29T14:44:35.975Z,14.90
2024-01-29T14:47:03.534Z,15.95
2024-01-29T14:49:30.849Z,15.02
2024-01-29T14:51:58.265Z,15.95
2024-01-29T14:54:26.539Z,15.40
2024-01-29T14:56:54.073Z,15.68
2024-01-29T14:59:21.340Z,14.57
2024-01-29T15:01:48.994Z,14.85
2024-01-29T15:04:16.407Z,14.65
2024-01-29T15:06:43.882Z,13.55
2024-01-29T15:09:12.246Z,14.77
2024-01-29T15:11:39.455Z,16.95
2024-01-29T15:14:07.131Z,17.17
2024-01-29T15:16:34.195Z,15.40
2024-01-29T15:19:01.405Z,14.40
2024-01-29T15:21:28.663Z,14.35
2024-01-29T15:23:56.220Z,14.70
2024-01-29T15:26:25.273Z,13.43
2024-01-29T15:28:52.796Z,13.75
2024-01-29T15:31:20.519Z,13.45
2024-01-29T15:33:51.521Z,13.57
2024-01-29T15:36:20.039Z,15.48
2024-01-29T15:38:47.143Z,14.10
2024-01-29T15:41:20.265Z,13.73
2024-01-29T15:43:48.134Z,13.75
2024-01-29T15:46:15.995Z,13.30
2024-01-29T15:48:43.077Z,14.70
2024-01-29T15:51:10.677Z,14.88
2024-01-29T15:53:38.213Z,14.68
2024-01-29T15:56:05.630Z,14.13
2024-01-29T15:58:33.213Z,13.57
2024-01-29T16:01:00.853Z,14.25
2024-01-29T16:03:27.980Z,14.48
2024-01-29T16:05:58.370Z,13.65
2024-01-29T16:08:25.802Z,13.27
2024-01-29T16:10:52.748Z,13.60
2024-01-29T16:13:19.679Z,13.73
2024-01-29T16:15:46.712Z,13.00
2024-01-29T16:18:13.890Z,13.27
2024-01-29T16:20:42.772Z,14.80
2024-01-29T16:23:10.006Z,13.60
2024-01-29T16:25:36.972Z,13.45
2024-01-29T16:28:05.778Z,15.10
2024-01-29T16:30:34.329Z,14.43
2024-01-29T16:33:03.543Z,14.95
2024-01-29T16:35:30.414Z,14.25
2024-01-29T16:37:57.620Z,14.02
2024-01-29T16:40:25.402Z,14.20
2024-01-29T16:42:52.422Z,14.98
2024-01-29T16:45:19.380Z,13.02
2024-01-29T16:47:46.827Z,13.30
2024-01-29T16:50:14.267Z,15.98
2024-01-29T16:52:41.358Z,14.63
2024-01-29T16:55:09.488Z,13.55
2024-01-29T16:57:36.621Z,13.38
2024-01-29T17:00:04.676Z,12.63
2024-01-29T17:02:31.603Z,12.80
2024-01-29T17:04:58.656Z,13.07
2024-01-29T17:07:28.411Z,13.15
2024-01-29T17:09:55.805Z,13.52
2024-01-29T17:12:25.039Z,12.93
2024-01-29T17:14:52.047Z,13.45
2024-01-29T17:17:19.295Z,12.48
2024-01-29T17:19:46.417Z,12.05
2024-01-29T17:22:13.717Z,12.43
2024-01-29T17:24:42.041Z,12.90
2024-01-29T17:27:09.152Z,13.55
2024-01-29T17:29:36.043Z,13.32
2024-01-29T17:32:04.496Z,12.18
2024-01-29T17:34:32.261Z,12.48
2024-01-29T17:36:59.297Z,12.57
2024-01-29T17:39:26.867Z,13.18
2024-01-29T17:41:55.518Z,13.32
2024-01-29T17:44:24.029Z,12.95
2024-01-29T17:46:50.981Z,15.57
2024-01-29T17:49:17.924Z,14.95
2024-01-29T17:51:45.083Z,12.38
2024-01-29T17:54:11.982Z,13.95
2024-01-29T17:56:39.019Z,12.80
2024-01-29T17:59:05.905Z,12.70
2024-01-29T18:01:32.953Z,12.45
2024-01-29T18:03:59.975Z,13.18
2024-01-29T18:06:27.028Z,12.43
2024-01-29T18:08:53.979Z,12.52
2024-01-29T18:11:21.243Z,12.45
2024-01-29T18:13:48.649Z,13.63
2024-01-29T18:16:15.730Z,14.48
2024-01-29T18:18:42.772Z,14.25
2024-01-29T18:21:09.870Z,13.50
2024-01-29T18:23:36.739Z,12.93
2024-01-29T18:26:03.716Z,13.35
2024-01-29T18:28:30.562Z,13.35
2024-01-29T18:30:57.503Z,13.85
2024-01-29T18:33:24.564Z,13.40
2024-01-29T18:35:51.633Z,14.00
2024-01-29T18:38:18.467Z,13.93
2024-01-29T18:40:45.317Z,12.88
2024-01-29T18:43:13.007Z,14.35
2024-01-29T18:45:39.967Z,16.05
2024-01-29T18:48:07.707Z,14.75
2024-01-29T18:50:34.730Z,16.23
2024-01-29T18:53:01.925Z,14.25
2024-01-29T18:55:28.866Z,13.75
2024-01-29T18:57:55.739Z,13.70
2024-01-29T19:00:22.842Z,15.15
2024-01-29T19:02:49.731Z,14.52
2024-01-29T19:05:17.290Z,13.23
2024-01-29T19:07:49.113Z,14.23
2024-01-29T19:10:16.574Z,15.38
2024-01-29T19:12:43.617Z,13.18
2024-01-29T19:15:10.538Z,13.82
2024-01-29T19:17:38.194Z,13.27
2024-01-29T19:20:05.697Z,13.65
2024-01-29T19:22:32.612Z,14.32
2024-01-29T19:25:01.658Z,12.68
2024-01-29T19:27:28.850Z,13.30
2024-01-29T19:29:55.828Z,14.43
2024-01-29T19:32:22.928Z,13.45
2024-01-29T19:34:50.297Z,13.95
2024-01-29T19:37:18.528Z,13.13
2024-01-29T19:39:45.634Z,12.95
2024-01-29T19:42:12.538Z,12.77
2024-01-29T19:44:42.566Z,13.23
2024-01-29T19:47:09.884Z,13.90
2024-01-29T19:49:36.914Z,13.57
2024-01-29T19:52:04.283Z,12.80
2024-01-29T19:54:31.923Z,13.18
2024-01-29T19:56:58.985Z,13.10
2024-01-29T19:59:25.938Z,13.27
2024-01-29T20:01:52.955Z,12.85
2024-01-29T20:04:20.127Z,14.00
2024-01-29T20:06:47.110Z,13.73
2024-01-29T20:09:14.082Z,13.55
2024-01-29T20:11:41.100Z,13.80
2024-01-29T20:14:07.966Z,13.00
2024-01-29T20:16:39.033Z,13.32
2024-01-29T20:19:06.103Z,13.85
2024-01-29T20:21:33.113Z,13.48
2024-01-29T20:24:00.216Z,13.10
2024-01-29T20:26:27.087Z,12.98
2024-01-29T20:28:54.218Z,12.55
2024-01-29T20:31:25.424Z,13.15
2024-01-29T20:33:54.193Z,12.35
2024-01-29T20:36:22.558Z,12.52
2024-01-29T20:38:50.255Z,12.80
2024-01-29T20:41:32.384Z,12.02
2024-01-29T20:44:06.977Z,11.85
2024-01-29T20:46:33.970Z,12.00
2024-01-29T20:49:04.078Z,11.68
2024-01-29T20:51:31.352Z,12.00
2024-01-29T20:53:58.576Z,10.55
2024-01-29T20:56:26.193Z,11.45
2024-01-29T20:58:53.496Z,12.25
2024-01-29T21:01:20.664Z,13.60
2024-01-29T21:03:47.990Z,11.88
2024-01-29T21:06:15.271Z,12.27
2024-01-29T21:08:42.304Z,13.75
2024-01-29T21:11:09.241Z,12.35
2024-01-29T21:13:36.177Z,11.95
2024-01-29T21:16:03.210Z,12.07
2024-01-29T21:18:30.228Z,11.93
2024-01-29T21:20:57.068Z,12.15
2024-01-29T21:23:24.020Z,12.43
2024-01-29T21:25:51.094Z,12.32
2024-01-29T21:28:18.179Z,13.23
2024-01-29T21:30:45.519Z,11.55
2024-01-29T21:33:13.855Z,12.15
2024-01-29T21:35:40.849Z,12.00
2024-01-29T21:38:07.674Z,11.02
2024-01-29T21:40:34.835Z,12.82
2024-01-29T21:43:02.283Z,13.18
2024-01-29T21:45:29.272Z,12.02
2024-01-29T21:47:56.570Z,12.15
2024-01-29T21:50:23.497Z,11.57
2024-01-29T21:52:50.499Z,11.73
2024-01-29T21:55:19.543Z,11.55
2024-01-29T21:57:46.533Z,12.68
2024-01-29T22:00:13.835Z,10.77
2024-01-29T22:02:40.901Z,10.75
2024-01-29T22:05:08.254Z,11.15
2024-01-29T22:07:35.208Z,12.20
2024-01-29T22:10:02.253Z,11.63
2024-01-29T22:12:29.173Z,11.70
2024-01-29T22:14:56.006Z,12.52
2024-01-29T22:17:23.094Z,12.35
2024-01-29T22:19:51.430Z,12.40
2024-01-29T22:22:20.984Z,12.10
2024-01-29T22:24:49.436Z,10.75
2024-01-29T22:27:16.581Z,12.07
2024-01-29T22:29:43.461Z,11.90
2024-01-29T22:32:10.304Z,11.18
2024-01-29T22:34:37.829Z,10.02
2024-01-29T22:37:04.904Z,10.43
2024-01-29T22:39:32.236Z,10.43
2024-01-29T22:41:59.067Z,13.10
2024-01-29T22:44:25.861Z,12.50
2024-01-29T22:46:55.804Z,12.32
2024-01-29T22:49:22.857Z,13.60
2024-01-29T22:51:49.846Z,13.35
2024-01-29T22:54:16.801Z,13.02
2024-01-29T22:56:43.721Z,12.50
2024-01-29T22:59:11.058Z,12.82
2024-01-29T23:01:38.024Z,13.88
2024-01-29T23:04:05.147Z,13.55
2024-01-29T23:06:31.995Z,13.23
2024-01-29T23:08:59.007Z,13.38
2024-01-29T23:11:25.901Z,14.05
2024-01-29T23:13:52.868Z,12.88
2024-01-29T23:16:19.772Z,13.70
2024-01-29T23:18:46.764Z,14.68
2024-01-29T23:21:13.696Z,12.98
2024-01-29T23:23:40.570Z,13.73
2024-01-29T23:26:07.438Z,13.52
2024-01-29T23:28:35.600Z,13.25
2024-01-29T23:31:02.834Z,13.35
2024-01-29T23:33:29.971Z,13.57
2024-01-29T23:35:56.932Z,13.40
2024-01-29T23:38:23.987Z,12.95
2024-01-29T23:40:51.018Z,13.07
2024-01-29T23:43:18.155Z,12.88
2024-01-29T23:45:45.728Z,11.43
2024-01-29T23:48:12.775Z,12.13
2024-01-29T23:50:39.815Z,12.90
2024-01-29T23:53:07.130Z,11.93
2024-01-29T23:55:34.577Z,12.13
2024-01-29T23:58:02.819Z,11.73
